sensor_id;sensor_type;location;lat;lon;timestamp;P1;durP1;ratioP1;P2;durP2;ratioP2
66421;SDS011;53228;51.380;0.098;2022-10-17T00:01:03;12.90;;;5.43;;
66421;SDS011;53228;51.380;0.098;2022-10-17T00:03:32;9.05;;;5.57;;
66421;SDS011;53228;51.380;0.098;2022-10-17T00:06:04;9.10;;;5.03;;
66421;SDS011;53228;51.380;0.098;2022-10-17T00:08:39;12.40;;;5.07;;
66421;SDS011;53228;51.380;0.098;2022-10-17T00:11:10;16.80;;;5.15;;
66421;SDS011;53228;51.380;0.098;2022-10-17T00:13:47;10.50;;;4.85;;
66421;SDS011;53228;51.380;0.098;2022-10-17T00:16:24;12.70;;;5.00;;
66421;SDS011;53228;51.380;0.098;2022-10-17T00:18:56;12.65;;;4.60;;
66421;SDS011;53228;51.380;0.098;2022-10-17T00:21:24;13.88;;;4.40;;
66421;SDS011;53228;51.380;0.098;2022-10-17T00:23:52;11.18;;;4.80;;
66421;SDS011;53228;51.380;0.098;2022-10-17T00:26:21;9.43;;;4.45;;
66421;SDS011;53228;51.380;0.098;2022-10-17T00:28:49;12.57;;;4.45;;
66421;SDS011;53228;51.380;0.098;2022-10-17T00:31:18;13.57;;;5.40;;
66421;SDS011;53228;51.380;0.098;2022-10-17T00:36:17;9.30;;;3.72;;
66421;SDS011;53228;51.380;0.098;2022-10-17T00:38:48;7.60;;;3.38;;
66421;SDS011;53228;51.380;0.098;2022-10-17T00:41:19;14.55;;;4.72;;
66421;SDS011;53228;51.380;0.098;2022-10-17T00:43:53;9.68;;;3.70;;
66421;SDS011;53228;51.380;0.098;2022-10-17T00:46:25;9.25;;;4.75;;
66421;SDS011;53228;51.380;0.098;2022-10-17T00:48:55;10.77;;;3.95;;
66421;SDS011;53228;51.380;0.098;2022-10-17T00:51:37;6.13;;;2.80;;
66421;SDS011;53228;51.380;0.098;2022-10-17T00:54:11;7.55;;;3.22;;
66421;SDS011;53228;51.380;0.098;2022-10-17T00:56:42;13.82;;;3.08;;
66421;SDS011;53228;51.380;0.098;2022-10-17T00:59:11;6.43;;;3.03;;
66421;SDS011;53228;51.380;0.098;2022-10-17T01:01:42;7.85;;;3.20;;
66421;SDS011;53228;51.380;0.098;2022-10-17T01:04:26;5.50;;;2.92;;
66421;SDS011;53228;51.380;0.098;2022-10-17T01:06:54;6.45;;;3.17;;
66421;SDS011;53228;51.380;0.098;2022-10-17T01:09:21;4.78;;;2.65;;
66421;SDS011;53228;51.380;0.098;2022-10-17T01:11:51;7.13;;;2.88;;
66421;SDS011;53228;51.380;0.098;2022-10-17T01:14:30;7.20;;;2.90;;
66421;SDS011;53228;51.380;0.098;2022-10-17T01:17:10;10.68;;;2.80;;
66421;SDS011;53228;51.380;0.098;2022-10-17T01:25:20;13.48;;;3.47;;
66421;SDS011;53228;51.380;0.098;2022-10-17T01:28:14;4.20;;;2.60;;
66421;SDS011;53228;51.380;0.098;2022-10-17T01:33:59;9.52;;;3.03;;
66421;SDS011;53228;51.380;0.098;2022-10-17T01:36:55;7.10;;;2.10;;
66421;SDS011;53228;51.380;0.098;2022-10-17T01:42:16;8.02;;;2.60;;
66421;SDS011;53228;51.380;0.098;2022-10-17T01:45:05;5.55;;;1.88;;
66421;SDS011;53228;51.380;0.098;2022-10-17T01:47:38;4.10;;;2.42;;
66421;SDS011;53228;51.380;0.098;2022-10-17T01:50:12;4.30;;;2.15;;
66421;SDS011;53228;51.380;0.098;2022-10-17T01:52:54;8.85;;;2.65;;
66421;SDS011;53228;51.380;0.098;2022-10-17T01:55:30;6.25;;;2.17;;
66421;SDS011;53228;51.380;0.098;2022-10-17T01:58:04;10.52;;;2.60;;
66421;SDS011;53228;51.380;0.098;2022-10-17T02:00:33;12.43;;;2.38;;
66421;SDS011;53228;51.380;0.098;2022-10-17T02:03:04;6.65;;;2.20;;
66421;SDS011;53228;51.380;0.098;2022-10-17T02:05:35;7.70;;;2.30;;
66421;SDS011;53228;51.380;0.098;2022-10-17T02:08:06;5.25;;;2.78;;
66421;SDS011;53228;51.380;0.098;2022-10-17T02:10:52;7.97;;;2.70;;
66421;SDS011;53228;51.380;0.098;2022-10-17T02:13:43;9.88;;;3.25;;
66421;SDS011;53228;51.380;0.098;2022-10-17T02:30:28;5.40;;;2.30;;
66421;SDS011;53228;51.380;0.098;2022-10-17T02:33:08;8.60;;;2.50;;
66421;SDS011;53228;51.380;0.098;2022-10-17T02:38:10;9.63;;;2.60;;
66421;SDS011;53228;51.380;0.098;2022-10-17T02:40:41;5.82;;;2.22;;
66421;SDS011;53228;51.380;0.098;2022-10-17T02:43:11;13.30;;;3.97;;
66421;SDS011;53228;51.380;0.098;2022-10-17T02:45:40;3.90;;;2.17;;
66421;SDS011;53228;51.380;0.098;2022-10-17T02:48:23;5.93;;;2.28;;
66421;SDS011;53228;51.380;0.098;2022-10-17T02:51:01;3.40;;;2.25;;
66421;SDS011;53228;51.380;0.098;2022-10-17T02:56:38;9.45;;;2.20;;
66421;SDS011;53228;51.380;0.098;2022-10-17T02:59:10;4.65;;;2.00;;
66421;SDS011;53228;51.380;0.098;2022-10-17T03:01:40;6.50;;;2.30;;
66421;SDS011;53228;51.380;0.098;2022-10-17T03:04:12;7.60;;;1.83;;
66421;SDS011;53228;51.380;0.098;2022-10-17T03:06:41;11.10;;;2.45;;
66421;SDS011;53228;51.380;0.098;2022-10-17T03:09:10;6.63;;;2.30;;
66421;SDS011;53228;51.380;0.098;2022-10-17T03:11:37;7.63;;;2.17;;
66421;SDS011;53228;51.380;0.098;2022-10-17T03:14:06;5.47;;;2.03;;
66421;SDS011;53228;51.380;0.098;2022-10-17T03:16:34;7.03;;;1.73;;
66421;SDS011;53228;51.380;0.098;2022-10-17T03:19:03;6.03;;;2.08;;
66421;SDS011;53228;51.380;0.098;2022-10-17T03:21:32;11.80;;;1.95;;
66421;SDS011;53228;51.380;0.098;2022-10-17T03:23:59;7.90;;;2.08;;
66421;SDS011;53228;51.380;0.098;2022-10-17T03:26:27;6.47;;;1.90;;
66421;SDS011;53228;51.380;0.098;2022-10-17T03:28:56;8.57;;;2.67;;
66421;SDS011;53228;51.380;0.098;2022-10-17T03:31:25;8.63;;;2.60;;
66421;SDS011;53228;51.380;0.098;2022-10-17T03:33:54;8.27;;;2.13;;
66421;SDS011;53228;51.380;0.098;2022-10-17T03:36:22;3.92;;;2.35;;
66421;SDS011;53228;51.380;0.098;2022-10-17T03:38:53;4.00;;;1.98;;
66421;SDS011;53228;51.380;0.098;2022-10-17T03:41:21;7.22;;;2.30;;
66421;SDS011;53228;51.380;0.098;2022-10-17T03:43:51;6.70;;;1.80;;
66421;SDS011;53228;51.380;0.098;2022-10-17T03:46:21;9.18;;;2.00;;
66421;SDS011;53228;51.380;0.098;2022-10-17T03:48:49;9.00;;;2.47;;
66421;SDS011;53228;51.380;0.098;2022-10-17T03:51:16;10.73;;;2.35;;
66421;SDS011;53228;51.380;0.098;2022-10-17T03:53:49;7.93;;;2.10;;
66421;SDS011;53228;51.380;0.098;2022-10-17T03:56:17;4.78;;;1.85;;
66421;SDS011;53228;51.380;0.098;2022-10-17T03:58:55;7.85;;;2.03;;
66421;SDS011;53228;51.380;0.098;2022-10-17T04:01:23;10.77;;;3.63;;
66421;SDS011;53228;51.380;0.098;2022-10-17T04:03:53;8.63;;;1.98;;
66421;SDS011;53228;51.380;0.098;2022-10-17T04:06:30;7.63;;;2.47;;
66421;SDS011;53228;51.380;0.098;2022-10-17T04:08:58;10.43;;;2.53;;
66421;SDS011;53228;51.380;0.098;2022-10-17T04:11:40;6.35;;;2.33;;
66421;SDS011;53228;51.380;0.098;2022-10-17T04:14:08;7.30;;;2.28;;
66421;SDS011;53228;51.380;0.098;2022-10-17T04:16:38;5.47;;;1.85;;
66421;SDS011;53228;51.380;0.098;2022-10-17T04:19:12;6.18;;;1.90;;
66421;SDS011;53228;51.380;0.098;2022-10-17T04:21:43;9.27;;;2.20;;
66421;SDS011;53228;51.380;0.098;2022-10-17T04:24:12;9.75;;;1.83;;
66421;SDS011;53228;51.380;0.098;2022-10-17T04:27:12;10.02;;;2.25;;
66421;SDS011;53228;51.380;0.098;2022-10-17T04:29:43;4.30;;;2.10;;
66421;SDS011;53228;51.380;0.098;2022-10-17T04:32:21;8.55;;;2.65;;
66421;SDS011;53228;51.380;0.098;2022-10-17T04:34:56;9.77;;;1.80;;
66421;SDS011;53228;51.380;0.098;2022-10-17T04:37:23;9.15;;;2.30;;
66421;SDS011;53228;51.380;0.098;2022-10-17T04:39:53;6.25;;;1.75;;
66421;SDS011;53228;51.380;0.098;2022-10-17T04:42:20;6.95;;;2.13;;
66421;SDS011;53228;51.380;0.098;2022-10-17T04:44:50;14.43;;;2.70;;
66421;SDS011;53228;51.380;0.098;2022-10-17T04:47:18;7.93;;;1.83;;
66421;SDS011;53228;51.380;0.098;2022-10-17T04:49:45;11.70;;;2.00;;
66421;SDS011;53228;51.380;0.098;2022-10-17T04:52:15;13.05;;;2.47;;
66421;SDS011;53228;51.380;0.098;2022-10-17T04:54:44;11.65;;;2.03;;
66421;SDS011;53228;51.380;0.098;2022-10-17T04:57:13;8.50;;;2.00;;
66421;SDS011;53228;51.380;0.098;2022-10-17T04:59:47;12.77;;;2.42;;
66421;SDS011;53228;51.380;0.098;2022-10-17T05:02:35;10.98;;;1.92;;
66421;SDS011;53228;51.380;0.098;2022-10-17T05:05:03;7.55;;;2.05;;
66421;SDS011;53228;51.380;0.098;2022-10-17T05:07:31;11.88;;;2.22;;
66421;SDS011;53228;51.380;0.098;2022-10-17T05:10:01;7.13;;;1.85;;
66421;SDS011;53228;51.380;0.098;2022-10-17T05:12:30;13.60;;;2.58;;
66421;SDS011;53228;51.380;0.098;2022-10-17T05:14:58;11.73;;;2.78;;
66421;SDS011;53228;51.380;0.098;2022-10-17T05:17:27;8.48;;;2.10;;
66421;SDS011;53228;51.380;0.098;2022-10-17T05:19:55;11.70;;;2.10;;
66421;SDS011;53228;51.380;0.098;2022-10-17T05:22:22;7.78;;;2.67;;
66421;SDS011;53228;51.380;0.098;2022-10-17T05:24:50;12.45;;;2.30;;
66421;SDS011;53228;51.380;0.098;2022-10-17T05:27:18;14.57;;;2.53;;
66421;SDS011;53228;51.380;0.098;2022-10-17T05:29:45;14.02;;;2.47;;
66421;SDS011;53228;51.380;0.098;2022-10-17T05:32:22;11.60;;;2.13;;
66421;SDS011;53228;51.380;0.098;2022-10-17T05:34:50;10.35;;;2.08;;
66421;SDS011;53228;51.380;0.098;2022-10-17T05:37:18;11.25;;;2.03;;
66421;SDS011;53228;51.380;0.098;2022-10-17T05:39:50;10.95;;;2.28;;
66421;SDS011;53228;51.380;0.098;2022-10-17T05:42:19;8.77;;;1.80;;
66421;SDS011;53228;51.380;0.098;2022-10-17T05:44:47;9.02;;;1.88;;
66421;SDS011;53228;51.380;0.098;2022-10-17T05:49:44;7.30;;;2.00;;
66421;SDS011;53228;51.380;0.098;2022-10-17T05:52:22;10.50;;;2.05;;
66421;SDS011;53228;51.380;0.098;2022-10-17T05:55:04;12.23;;;2.17;;
66421;SDS011;53228;51.380;0.098;2022-10-17T05:57:32;12.23;;;1.77;;
66421;SDS011;53228;51.380;0.098;2022-10-17T06:00:01;10.40;;;2.25;;
66421;SDS011;53228;51.380;0.098;2022-10-17T06:02:40;13.15;;;2.33;;
66421;SDS011;53228;51.380;0.098;2022-10-17T06:05:10;9.77;;;2.20;;
66421;SDS011;53228;51.380;0.098;2022-10-17T06:07:39;8.70;;;1.88;;
66421;SDS011;53228;51.380;0.098;2022-10-17T06:10:08;8.32;;;1.63;;
66421;SDS011;53228;51.380;0.098;2022-10-17T06:12:38;8.88;;;2.38;;
66421;SDS011;53228;51.380;0.098;2022-10-17T06:15:05;8.32;;;2.08;;
66421;SDS011;53228;51.380;0.098;2022-10-17T06:17:34;16.48;;;3.22;;
66421;SDS011;53228;51.380;0.098;2022-10-17T06:20:02;5.18;;;1.65;;
66421;SDS011;53228;51.380;0.098;2022-10-17T06:22:30;7.13;;;1.85;;
66421;SDS011;53228;51.380;0.098;2022-10-17T06:24:59;6.78;;;2.10;;
66421;SDS011;53228;51.380;0.098;2022-10-17T06:27:27;5.70;;;1.85;;
66421;SDS011;53228;51.380;0.098;2022-10-17T06:29:55;5.82;;;1.83;;
66421;SDS011;53228;51.380;0.098;2022-10-17T06:32:23;5.40;;;2.10;;
66421;SDS011;53228;51.380;0.098;2022-10-17T06:34:50;7.13;;;1.90;;
66421;SDS011;53228;51.380;0.098;2022-10-17T06:37:18;4.93;;;1.70;;
66421;SDS011;53228;51.380;0.098;2022-10-17T06:39:47;6.22;;;1.42;;
66421;SDS011;53228;51.380;0.098;2022-10-17T06:42:18;4.22;;;2.05;;
66421;SDS011;53228;51.380;0.098;2022-10-17T06:45:07;6.93;;;1.90;;
66421;SDS011;53228;51.380;0.098;2022-10-17T06:47:41;2.45;;;1.58;;
66421;SDS011;53228;51.380;0.098;2022-10-17T06:50:27;6.43;;;1.90;;
66421;SDS011;53228;51.380;0.098;2022-10-17T06:53:17;3.92;;;1.70;;
66421;SDS011;53228;51.380;0.098;2022-10-17T06:56:14;6.50;;;1.58;;
66421;SDS011;53228;51.380;0.098;2022-10-17T06:59:14;6.13;;;1.40;;
66421;SDS011;53228;51.380;0.098;2022-10-17T07:01:50;8.02;;;1.65;;
66421;SDS011;53228;51.380;0.098;2022-10-17T07:04:17;3.67;;;1.00;;
66421;SDS011;53228;51.380;0.098;2022-10-17T07:06:44;4.45;;;1.20;;
66421;SDS011;53228;51.380;0.098;2022-10-17T07:09:18;4.20;;;0.90;;
66421;SDS011;53228;51.380;0.098;2022-10-17T07:11:46;2.85;;;1.08;;
66421;SDS011;53228;51.380;0.098;2022-10-17T07:14:18;3.25;;;1.02;;
66421;SDS011;53228;51.380;0.098;2022-10-17T07:16:46;6.25;;;1.17;;
66421;SDS011;53228;51.380;0.098;2022-10-17T07:19:19;2.92;;;1.00;;
66421;SDS011;53228;51.380;0.098;2022-10-17T07:21:46;3.55;;;1.00;;
66421;SDS011;53228;51.380;0.098;2022-10-17T07:24:15;4.90;;;0.98;;
66421;SDS011;53228;51.380;0.098;2022-10-17T07:26:47;9.30;;;1.20;;
66421;SDS011;53228;51.380;0.098;2022-10-17T07:29:15;3.28;;;1.15;;
66421;SDS011;53228;51.380;0.098;2022-10-17T07:31:48;4.75;;;1.05;;
66421;SDS011;53228;51.380;0.098;2022-10-17T07:34:16;2.70;;;1.30;;
66421;SDS011;53228;51.380;0.098;2022-10-17T07:36:45;3.90;;;1.20;;
66421;SDS011;53228;51.380;0.098;2022-10-17T07:39:14;6.95;;;1.30;;
66421;SDS011;53228;51.380;0.098;2022-10-17T07:41:41;4.45;;;1.00;;
66421;SDS011;53228;51.380;0.098;2022-10-17T07:44:09;6.03;;;1.10;;
66421;SDS011;53228;51.380;0.098;2022-10-17T07:46:43;5.43;;;1.13;;
66421;SDS011;53228;51.380;0.098;2022-10-17T07:49:11;6.35;;;1.88;;
66421;SDS011;53228;51.380;0.098;2022-10-17T07:51:40;6.25;;;1.25;;
66421;SDS011;53228;51.380;0.098;2022-10-17T07:54:07;5.30;;;1.10;;
66421;SDS011;53228;51.380;0.098;2022-10-17T07:56:35;3.83;;;0.98;;
66421;SDS011;53228;51.380;0.098;2022-10-17T07:59:03;4.88;;;1.13;;
66421;SDS011;53228;51.380;0.098;2022-10-17T08:01:35;5.63;;;1.45;;
66421;SDS011;53228;51.380;0.098;2022-10-17T08:04:03;8.43;;;1.60;;
66421;SDS011;53228;51.380;0.098;2022-10-17T08:06:30;4.22;;;1.10;;
66421;SDS011;53228;51.380;0.098;2022-10-17T08:08:57;7.80;;;2.00;;
66421;SDS011;53228;51.380;0.098;2022-10-17T08:11:27;6.95;;;1.55;;
66421;SDS011;53228;51.380;0.098;2022-10-17T08:13:55;8.15;;;1.10;;
66421;SDS011;53228;51.380;0.098;2022-10-17T08:16:22;6.68;;;1.20;;
66421;SDS011;53228;51.380;0.098;2022-10-17T08:18:50;4.63;;;1.00;;
66421;SDS011;53228;51.380;0.098;2022-10-17T08:21:17;2.53;;;0.75;;
66421;SDS011;53228;51.380;0.098;2022-10-17T08:23:45;7.60;;;1.35;;
66421;SDS011;53228;51.380;0.098;2022-10-17T08:26:12;4.05;;;1.20;;
66421;SDS011;53228;51.380;0.098;2022-10-17T08:28:45;3.95;;;1.30;;
66421;SDS011;53228;51.380;0.098;2022-10-17T08:31:14;4.88;;;1.35;;
66421;SDS011;53228;51.380;0.098;2022-10-17T08:33:47;11.77;;;1.60;;
66421;SDS011;53228;51.380;0.098;2022-10-17T08:36:16;4.72;;;1.50;;
66421;SDS011;53228;51.380;0.098;2022-10-17T08:38:45;10.95;;;2.58;;
66421;SDS011;53228;51.380;0.098;2022-10-17T08:46:22;4.25;;;1.20;;
66421;SDS011;53228;51.380;0.098;2022-10-17T08:49:01;6.40;;;1.15;;
66421;SDS011;53228;51.380;0.098;2022-10-17T08:51:43;7.28;;;1.58;;
66421;SDS011;53228;51.380;0.098;2022-10-17T08:54:20;5.50;;;1.45;;
66421;SDS011;53228;51.380;0.098;2022-10-17T08:56:52;7.85;;;1.90;;
66421;SDS011;53228;51.380;0.098;2022-10-17T08:59:25;6.97;;;1.30;;
66421;SDS011;53228;51.380;0.098;2022-10-17T09:02:02;7.35;;;1.30;;
66421;SDS011;53228;51.380;0.098;2022-10-17T09:07:18;7.93;;;1.70;;
66421;SDS011;53228;51.380;0.098;2022-10-17T09:13:00;8.82;;;1.33;;
66421;SDS011;53228;51.380;0.098;2022-10-17T09:20:50;8.82;;;1.40;;
66421;SDS011;53228;51.380;0.098;2022-10-17T09:23:21;7.93;;;1.45;;
66421;SDS011;53228;51.380;0.098;2022-10-17T09:25:53;10.52;;;1.20;;
66421;SDS011;53228;51.380;0.098;2022-10-17T09:31:04;4.07;;;1.10;;
66421;SDS011;53228;51.380;0.098;2022-10-17T09:33:37;14.20;;;2.10;;
66421;SDS011;53228;51.380;0.098;2022-10-17T09:36:25;10.27;;;1.90;;
66421;SDS011;53228;51.380;0.098;2022-10-17T09:38:56;3.97;;;1.50;;
66421;SDS011;53228;51.380;0.098;2022-10-17T09:49:37;12.57;;;2.50;;
66421;SDS011;53228;51.380;0.098;2022-10-17T09:52:13;7.82;;;1.73;;
66421;SDS011;53228;51.380;0.098;2022-10-17T09:54:45;9.55;;;2.10;;
66421;SDS011;53228;51.380;0.098;2022-10-17T09:57:16;10.85;;;1.77;;
66421;SDS011;53228;51.380;0.098;2022-10-17T09:59:46;9.93;;;1.75;;
66421;SDS011;53228;51.380;0.098;2022-10-17T10:07:36;10.75;;;1.90;;
66421;SDS011;53228;51.380;0.098;2022-10-17T10:12:35;9.38;;;2.08;;
66421;SDS011;53228;51.380;0.098;2022-10-17T10:15:28;9.55;;;2.00;;
66421;SDS011;53228;51.380;0.098;2022-10-17T10:17:58;11.48;;;2.03;;
66421;SDS011;53228;51.380;0.098;2022-10-17T10:20:30;11.18;;;2.20;;
66421;SDS011;53228;51.380;0.098;2022-10-17T10:25:37;11.55;;;1.58;;
66421;SDS011;53228;51.380;0.098;2022-10-17T10:28:10;12.50;;;1.63;;
66421;SDS011;53228;51.380;0.098;2022-10-17T10:30:38;4.35;;;1.23;;
66421;SDS011;53228;51.380;0.098;2022-10-17T10:33:09;4.95;;;1.35;;
66421;SDS011;53228;51.380;0.098;2022-10-17T10:35:38;8.55;;;1.50;;
66421;SDS011;53228;51.380;0.098;2022-10-17T10:38:09;10.13;;;1.88;;
66421;SDS011;53228;51.380;0.098;2022-10-17T10:40:49;9.45;;;1.83;;
66421;SDS011;53228;51.380;0.098;2022-10-17T10:43:21;6.50;;;1.38;;
66421;SDS011;53228;51.380;0.098;2022-10-17T10:45:49;11.68;;;2.15;;
66421;SDS011;53228;51.380;0.098;2022-10-17T10:48:19;11.10;;;1.63;;
66421;SDS011;53228;51.380;0.098;2022-10-17T10:51:01;12.35;;;1.73;;
66421;SDS011;53228;51.380;0.098;2022-10-17T10:53:47;11.85;;;1.88;;
66421;SDS011;53228;51.380;0.098;2022-10-17T10:56:37;8.88;;;1.60;;
66421;SDS011;53228;51.380;0.098;2022-10-17T10:59:15;10.60;;;1.90;;
66421;SDS011;53228;51.380;0.098;2022-10-17T11:01:50;7.90;;;1.20;;
66421;SDS011;53228;51.380;0.098;2022-10-17T11:07:03;8.88;;;1.63;;
66421;SDS011;53228;51.380;0.098;2022-10-17T11:12:19;8.45;;;1.45;;
66421;SDS011;53228;51.380;0.098;2022-10-17T11:23:23;12.40;;;1.40;;
66421;SDS011;53228;51.380;0.098;2022-10-17T11:25:58;8.95;;;1.35;;
66421;SDS011;53228;51.380;0.098;2022-10-17T11:28:29;15.95;;;1.55;;
66421;SDS011;53228;51.380;0.098;2022-10-17T11:30:59;6.93;;;1.77;;
66421;SDS011;53228;51.380;0.098;2022-10-17T11:33:51;9.68;;;1.55;;
66421;SDS011;53228;51.380;0.098;2022-10-17T11:36:24;8.45;;;1.58;;
66421;SDS011;53228;51.380;0.098;2022-10-17T11:38:57;12.80;;;2.13;;
66421;SDS011;53228;51.380;0.098;2022-10-17T11:41:33;7.60;;;1.40;;
66421;SDS011;53228;51.380;0.098;2022-10-17T11:44:04;7.75;;;1.38;;
66421;SDS011;53228;51.380;0.098;2022-10-17T11:46:55;13.52;;;1.80;;
66421;SDS011;53228;51.380;0.098;2022-10-17T11:49:28;7.75;;;1.33;;
66421;SDS011;53228;51.380;0.098;2022-10-17T11:54:38;7.38;;;1.45;;
66421;SDS011;53228;51.380;0.098;2022-10-17T11:59:57;14.98;;;1.75;;
66421;SDS011;53228;51.380;0.098;2022-10-17T12:02:42;10.38;;;1.38;;
66421;SDS011;53228;51.380;0.098;2022-10-17T12:05:22;9.98;;;1.55;;
66421;SDS011;53228;51.380;0.098;2022-10-17T12:19:32;10.15;;;1.70;;
66421;SDS011;53228;51.380;0.098;2022-10-17T12:24:32;9.18;;;1.50;;
66421;SDS011;53228;51.380;0.098;2022-10-17T12:30:02;7.60;;;1.50;;
66421;SDS011;53228;51.380;0.098;2022-10-17T12:32:32;11.00;;;1.67;;
66421;SDS011;53228;51.380;0.098;2022-10-17T12:35:21;8.75;;;1.15;;
66421;SDS011;53228;51.380;0.098;2022-10-17T12:43:02;7.38;;;1.40;;
66421;SDS011;53228;51.380;0.098;2022-10-17T12:45:55;11.38;;;1.70;;
66421;SDS011;53228;51.380;0.098;2022-10-17T12:51:04;11.25;;;1.92;;
66421;SDS011;53228;51.380;0.098;2022-10-17T12:54:01;8.00;;;1.00;;
66421;SDS011;53228;51.380;0.098;2022-10-17T12:56:44;9.50;;;1.98;;
66421;SDS011;53228;51.380;0.098;2022-10-17T12:59:15;7.80;;;1.55;;
66421;SDS011;53228;51.380;0.098;2022-10-17T13:01:48;14.20;;;1.83;;
66421;SDS011;53228;51.380;0.098;2022-10-17T13:04:19;8.95;;;1.50;;
66421;SDS011;53228;51.380;0.098;2022-10-17T13:06:48;16.10;;;2.20;;
66421;SDS011;53228;51.380;0.098;2022-10-17T13:09:30;9.63;;;1.75;;
66421;SDS011;53228;51.380;0.098;2022-10-17T13:12:02;10.70;;;1.90;;
66421;SDS011;53228;51.380;0.098;2022-10-17T13:14:32;8.45;;;1.25;;
66421;SDS011;53228;51.380;0.098;2022-10-17T13:17:01;10.38;;;1.88;;
66421;SDS011;53228;51.380;0.098;2022-10-17T13:19:44;8.20;;;1.17;;
66421;SDS011;53228;51.380;0.098;2022-10-17T13:22:14;8.10;;;1.60;;
66421;SDS011;53228;51.380;0.098;2022-10-17T13:24:49;6.70;;;1.08;;
66421;SDS011;53228;51.380;0.098;2022-10-17T13:29:48;12.57;;;1.48;;
66421;SDS011;53228;51.380;0.098;2022-10-17T13:32:18;6.03;;;0.98;;
66421;SDS011;53228;51.380;0.098;2022-10-17T13:34:45;9.23;;;1.88;;
66421;SDS011;53228;51.380;0.098;2022-10-17T13:37:30;8.95;;;1.77;;
66421;SDS011;53228;51.380;0.098;2022-10-17T13:39:58;7.47;;;1.40;;
66421;SDS011;53228;51.380;0.098;2022-10-17T13:42:43;7.38;;;1.23;;
66421;SDS011;53228;51.380;0.098;2022-10-17T13:45:28;8.07;;;1.55;;
66421;SDS011;53228;51.380;0.098;2022-10-17T13:48:02;9.52;;;1.55;;
66421;SDS011;53228;51.380;0.098;2022-10-17T13:55:53;10.88;;;1.77;;
66421;SDS011;53228;51.380;0.098;2022-10-17T13:58:56;9.10;;;1.45;;
66421;SDS011;53228;51.380;0.098;2022-10-17T14:01:27;8.43;;;1.92;;
66421;SDS011;53228;51.380;0.098;2022-10-17T14:03:55;4.80;;;1.02;;
66421;SDS011;53228;51.380;0.098;2022-10-17T14:06:44;6.78;;;1.20;;
66421;SDS011;53228;51.380;0.098;2022-10-17T14:09:24;10.32;;;1.38;;
66421;SDS011;53228;51.380;0.098;2022-10-17T14:14:36;10.32;;;1.13;;
66421;SDS011;53228;51.380;0.098;2022-10-17T14:19:55;8.50;;;1.60;;
66421;SDS011;53228;51.380;0.098;2022-10-17T14:22:50;10.43;;;1.67;;
66421;SDS011;53228;51.380;0.098;2022-10-17T14:25:38;8.18;;;1.55;;
66421;SDS011;53228;51.380;0.098;2022-10-17T14:28:11;9.43;;;1.63;;
66421;SDS011;53228;51.380;0.098;2022-10-17T14:30:47;6.70;;;1.55;;
66421;SDS011;53228;51.380;0.098;2022-10-17T14:33:24;10.75;;;1.73;;
66421;SDS011;53228;51.380;0.098;2022-10-17T14:35:55;9.73;;;1.83;;
66421;SDS011;53228;51.380;0.098;2022-10-17T14:38:24;7.20;;;1.23;;
66421;SDS011;53228;51.380;0.098;2022-10-17T14:41:00;4.82;;;1.27;;
66421;SDS011;53228;51.380;0.098;2022-10-17T14:43:52;9.68;;;1.65;;
66421;SDS011;53228;51.380;0.098;2022-10-17T14:46:25;5.30;;;1.25;;
66421;SDS011;53228;51.380;0.098;2022-10-17T14:48:55;6.22;;;1.42;;
66421;SDS011;53228;51.380;0.098;2022-10-17T14:51:28;8.90;;;1.40;;
66421;SDS011;53228;51.380;0.098;2022-10-17T14:54:25;7.97;;;1.80;;
66421;SDS011;53228;51.380;0.098;2022-10-17T14:56:59;7.30;;;1.70;;
66421;SDS011;53228;51.380;0.098;2022-10-17T14:59:40;9.45;;;1.70;;
66421;SDS011;53228;51.380;0.098;2022-10-17T15:02:21;9.80;;;1.67;;
66421;SDS011;53228;51.380;0.098;2022-10-17T15:04:52;7.35;;;1.63;;
66421;SDS011;53228;51.380;0.098;2022-10-17T15:07:20;9.13;;;1.73;;
66421;SDS011;53228;51.380;0.098;2022-10-17T15:09:50;12.18;;;1.77;;
66421;SDS011;53228;51.380;0.098;2022-10-17T15:12:21;6.38;;;1.38;;
66421;SDS011;53228;51.380;0.098;2022-10-17T15:14:51;9.55;;;1.65;;
66421;SDS011;53228;51.380;0.098;2022-10-17T15:17:21;8.70;;;1.42;;
66421;SDS011;53228;51.380;0.098;2022-10-17T15:19:55;6.28;;;1.48;;
66421;SDS011;53228;51.380;0.098;2022-10-17T15:22:23;6.50;;;1.23;;
66421;SDS011;53228;51.380;0.098;2022-10-17T15:24:51;7.70;;;1.50;;
66421;SDS011;53228;51.380;0.098;2022-10-17T15:27:22;8.95;;;2.00;;
66421;SDS011;53228;51.380;0.098;2022-10-17T15:29:52;6.50;;;1.00;;
66421;SDS011;53228;51.380;0.098;2022-10-17T15:32:19;8.98;;;1.35;;
66421;SDS011;53228;51.380;0.098;2022-10-17T15:34:47;4.90;;;1.13;;
66421;SDS011;53228;51.380;0.098;2022-10-17T15:37:16;4.97;;;1.30;;
66421;SDS011;53228;51.380;0.098;2022-10-17T15:39:47;4.85;;;1.42;;
66421;SDS011;53228;51.380;0.098;2022-10-17T15:42:26;4.07;;;1.00;;
66421;SDS011;53228;51.380;0.098;2022-10-17T15:44:56;8.77;;;1.63;;
66421;SDS011;53228;51.380;0.098;2022-10-17T15:47:25;5.65;;;1.20;;
66421;SDS011;53228;51.380;0.098;2022-10-17T15:49:58;6.97;;;1.52;;
66421;SDS011;53228;51.380;0.098;2022-10-17T15:52:29;6.25;;;1.25;;
66421;SDS011;53228;51.380;0.098;2022-10-17T15:54:57;8.05;;;1.50;;
66421;SDS011;53228;51.380;0.098;2022-10-17T15:57:33;7.80;;;2.45;;
66421;SDS011;53228;51.380;0.098;2022-10-17T16:00:05;7.63;;;1.92;;
66421;SDS011;53228;51.380;0.098;2022-10-17T16:02:42;5.22;;;1.65;;
66421;SDS011;53228;51.380;0.098;2022-10-17T16:07:43;7.97;;;1.67;;
66421;SDS011;53228;51.380;0.098;2022-10-17T16:10:15;13.05;;;2.80;;
66421;SDS011;53228;51.380;0.098;2022-10-17T16:12:52;9.13;;;2.10;;
66421;SDS011;53228;51.380;0.098;2022-10-17T16:15:23;10.25;;;1.80;;
66421;SDS011;53228;51.380;0.098;2022-10-17T16:17:53;4.50;;;1.70;;
66421;SDS011;53228;51.380;0.098;2022-10-17T16:20:22;5.13;;;1.58;;
66421;SDS011;53228;51.380;0.098;2022-10-17T16:22:50;9.15;;;2.10;;
66421;SDS011;53228;51.380;0.098;2022-10-17T16:25:26;7.82;;;1.48;;
66421;SDS011;53228;51.380;0.098;2022-10-17T16:27:56;4.80;;;1.33;;
66421;SDS011;53228;51.380;0.098;2022-10-17T16:30:26;10.63;;;1.73;;
66421;SDS011;53228;51.380;0.098;2022-10-17T16:32:58;7.78;;;1.50;;
66421;SDS011;53228;51.380;0.098;2022-10-17T16:35:27;11.85;;;1.73;;
66421;SDS011;53228;51.380;0.098;2022-10-17T16:40:30;8.20;;;1.70;;
66421;SDS011;53228;51.380;0.098;2022-10-17T16:42:58;9.20;;;1.70;;
66421;SDS011;53228;51.380;0.098;2022-10-17T16:45:25;8.85;;;1.85;;
66421;SDS011;53228;51.380;0.098;2022-10-17T16:47:53;8.07;;;2.00;;
66421;SDS011;53228;51.380;0.098;2022-10-17T16:50:25;9.90;;;2.13;;
66421;SDS011;53228;51.380;0.098;2022-10-17T16:52:53;6.55;;;2.05;;
66421;SDS011;53228;51.380;0.098;2022-10-17T16:55:21;11.73;;;2.05;;
66421;SDS011;53228;51.380;0.098;2022-10-17T16:57:48;10.48;;;2.08;;
66421;SDS011;53228;51.380;0.098;2022-10-17T17:00:16;9.65;;;1.80;;
66421;SDS011;53228;51.380;0.098;2022-10-17T17:02:46;11.15;;;2.05;;
66421;SDS011;53228;51.380;0.098;2022-10-17T17:05:14;6.40;;;2.25;;
66421;SDS011;53228;51.380;0.098;2022-10-17T17:07:41;5.63;;;2.00;;
66421;SDS011;53228;51.380;0.098;2022-10-17T17:10:09;9.93;;;2.13;;
66421;SDS011;53228;51.380;0.098;2022-10-17T17:12:36;11.65;;;2.95;;
66421;SDS011;53228;51.380;0.098;2022-10-17T17:15:04;11.73;;;1.95;;
66421;SDS011;53228;51.380;0.098;2022-10-17T17:17:32;10.38;;;1.90;;
66421;SDS011;53228;51.380;0.098;2022-10-17T17:20:17;12.32;;;2.40;;
66421;SDS011;53228;51.380;0.098;2022-10-17T17:22:44;10.70;;;2.00;;
66421;SDS011;53228;51.380;0.098;2022-10-17T17:25:12;11.77;;;1.67;;
66421;SDS011;53228;51.380;0.098;2022-10-17T17:27:40;14.18;;;2.38;;
66421;SDS011;53228;51.380;0.098;2022-10-17T17:30:07;11.50;;;1.95;;
66421;SDS011;53228;51.380;0.098;2022-10-17T17:32:35;9.80;;;2.08;;